Time;durP1;ratioP1;P1;durP2;ratioP2;P2;SDS_P1;SDS_P2;PMS_P1;PMS_P2;Temp;Humidity;BMP_temperature;BMP_pressure;BME280_temperature;BME280_humidity;BME280_pressure;Samples;Min_cycle;Max_cycle;Signal;HPM_P1;HPM_P2
2023/10/26 00:01:10;;;;;;;35.27;27.77;;;;;;;;;;7365234;19;20256;-86
2023/10/26 00:03:35;;;;;;;33.05;26.23;;;;;;;;;;7363194;19;20284;-83
2023/10/26 00:06:01;;;;;;;35.43;27.80;;;;;;;;;;7363476;19;19998;-85
2023/10/26 00:08:26;;;;;;;39.05;29.73;;;;;;;;;;7368524;19;20758;-86
2023/10/26 00:10:52;;;;;;;39.28;30.70;;;;;;;;;;7367650;19;20231;-82
2023/10/26 00:13:17;;;;;;;37.17;29.48;;;;;;;;;;7366214;19;20010;-80
2023/10/26 00:15:43;;;;;;;43.00;29.55;;;;;;;;;;7366025;19;20428;-83
2023/10/26 00:18:08;;;;;;;36.17;29.88;;;;;;;;;;7364309;19;20272;-83
2023/10/26 00:20:33;;;;;;;38.80;30.17;;;;;;;;;;7369908;19;20625;-83
2023/10/26 00:22:58;;;;;;;39.53;31.17;;;;;;;;;;7364148;19;20802;-84
2023/10/26 00:25:23;;;;;;;37.00;29.42;;;;;;;;;;7363327;19;20236;-84
2023/10/26 00:27:48;;;;;;;34.45;28.58;;;;;;;;;;7370509;19;20101;-83
2023/10/26 00:30:13;;;;;;;35.67;29.37;;;;;;;;;;7367763;19;20573;-86
2023/10/26 00:32:39;;;;;;;34.75;28.98;;;;;;;;;;7366270;19;20227;-86
2023/10/26 00:35:05;;;;;;;36.63;29.77;;;;;;;;;;7365737;19;20461;-85
2023/10/26 00:37:30;;;;;;;38.72;29.42;;;;;;;;;;7365728;19;20438;-79
2023/10/26 00:39:55;;;;;;;37.33;30.55;;;;;;;;;;7332571;19;20616;-88
2023/10/26 00:42:20;;;;;;;35.13;28.90;;;;;;;;;;7365434;19;20006;-83
2023/10/26 00:44:46;;;;;;;32.65;26.88;;;;;;;;;;7323038;19;20336;-90
2023/10/26 00:47:13;;;;;;;30.77;26.35;;;;;;;;;;7367328;19;20012;-85
2023/10/26 00:49:38;;;;;;;31.42;24.73;;;;;;;;;;7369529;19;20007;-83
2023/10/26 00:52:04;;;;;;;29.95;25.00;;;;;;;;;;7361942;19;20010;-82
2023/10/26 00:54:29;;;;;;;31.75;26.35;;;;;;;;;;7353047;19;20011;-85
2023/10/26 00:56:54;;;;;;;28.83;24.50;;;;;;;;;;7363732;19;19999;-89
2023/10/26 00:59:20;;;;;;;29.35;24.10;;;;;;;;;;7363717;19;19999;-88
2023/10/26 01:01:48;;;;;;;27.88;22.75;;;;;;;;;;7367736;19;20070;-84
2023/10/26 01:04:14;;;;;;;27.65;22.73;;;;;;;;;;7363582;19;20010;-83
2023/10/26 01:06:39;;;;;;;28.42;23.23;;;;;;;;;;7356133;19;20033;-85
2023/10/26 01:09:05;;;;;;;29.77;23.27;;;;;;;;;;7355388;19;20545;-80
2023/10/26 01:11:30;;;;;;;31.45;24.92;;;;;;;;;;7369333;19;20002;-84
2023/10/26 01:13:55;;;;;;;26.92;23.02;;;;;;;;;;7368406;19;19998;-81
2023/10/26 01:16:21;;;;;;;27.63;22.87;;;;;;;;;;7355375;19;20255;-86
2023/10/26 01:18:46;;;;;;;29.05;23.33;;;;;;;;;;7366053;19;20258;-79
2023/10/26 01:21:12;;;;;;;28.20;23.65;;;;;;;;;;7348316;19;20058;-82
2023/10/26 01:23:37;;;;;;;24.48;20.88;;;;;;;;;;7360702;19;20066;-78
2023/10/26 01:26:02;;;;;;;24.73;21.00;;;;;;;;;;7364213;19;20006;-82
2023/10/26 01:28:27;;;;;;;23.52;19.67;;;;;;;;;;7368150;19;20898;-82
2023/10/26 01:30:52;;;;;;;22.50;19.60;;;;;;;;;;7342183;19;20002;-83
2023/10/26 01:33:18;;;;;;;21.08;18.77;;;;;;;;;;7359467;19;19999;-87
2023/10/26 01:35:45;;;;;;;20.77;18.55;;;;;;;;;;7367439;19;20469;-85
2023/10/26 01:38:11;;;;;;;23.67;19.50;;;;;;;;;;7349344;19;20082;-86
2023/10/26 01:40:36;;;;;;;24.27;19.95;;;;;;;;;;7249744;19;20082;-84
2023/10/26 01:43:04;;;;;;;21.83;18.43;;;;;;;;;;7259615;19;20509;-88
2023/10/26 01:45:29;;;;;;;23.58;20.17;;;;;;;;;;7226007;19;20675;-81
2023/10/26 01:47:54;;;;;;;26.48;20.13;;;;;;;;;;7262638;19;19995;-86
2023/10/26 01:50:20;;;;;;;21.67;18.27;;;;;;;;;;7218788;19;20502;-86
2023/10/26 01:52:45;;;;;;;19.10;17.02;;;;;;;;;;7263284;19;20932;-82
2023/10/26 01:55:10;;;;;;;20.73;18.15;;;;;;;;;;7261242;19;20061;-82
2023/10/26 01:57:35;;;;;;;21.10;17.65;;;;;;;;;;7259393;19;20277;-86
2023/10/26 02:00:00;;;;;;;20.70;18.02;;;;;;;;;;7264158;19;19998;-91
2023/10/26 02:02:26;;;;;;;26.33;21.33;;;;;;;;;;7262758;19;20723;-90
2023/10/26 02:04:51;;;;;;;24.55;20.65;;;;;;;;;;7228792;19;20003;-90
2023/10/26 02:07:16;;;;;;;22.85;19.95;;;;;;;;;;7261098;19;21039;-89
2023/10/26 02:09:41;;;;;;;24.65;20.85;;;;;;;;;;7239468;19;20535;-92
2023/10/26 02:12:07;;;;;;;24.00;20.13;;;;;;;;;;7266659;19;20810;-89
2023/10/26 02:14:32;;;;;;;25.20;19.38;;;;;;;;;;7257487;19;20254;-85
2023/10/26 02:16:57;;;;;;;25.10;19.43;;;;;;;;;;7263518;19;20022;-83
2023/10/26 02:19:22;;;;;;;24.47;19.97;;;;;;;;;;7261652;19;20240;-86
2023/10/26 02:21:47;;;;;;;23.27;18.83;;;;;;;;;;7263441;19;20227;-87
2023/10/26 02:24:13;;;;;;;22.65;19.00;;;;;;;;;;7258662;19;20260;-89
2023/10/26 02:26:38;;;;;;;23.40;17.63;;;;;;;;;;7269024;19;20026;-91
2023/10/26 02:29:03;;;;;;;22.73;17.70;;;;;;;;;;7261826;19;20033;-88
2023/10/26 02:31:28;;;;;;;24.70;18.98;;;;;;;;;;7265528;19;20411;-89
2023/10/26 02:33:54;;;;;;;24.48;18.33;;;;;;;;;;7268963;19;20006;-91
2023/10/26 02:36:19;;;;;;;24.65;18.45;;;;;;;;;;7254669;19;19996;-91
2023/10/26 02:38:44;;;;;;;22.33;19.23;;;;;;;;;;7270072;19;20006;-83
2023/10/26 02:41:09;;;;;;;23.37;18.73;;;;;;;;;;7359723;19;20474;-87
2023/10/26 02:43:34;;;;;;;24.52;18.65;;;;;;;;;;7366049;19;20223;-82
2023/10/26 02:46:00;;;;;;;23.63;18.83;;;;;;;;;;7359068;19;20699;-90
2023/10/26 02:48:26;;;;;;;23.35;19.75;;;;;;;;;;7363603;19;20699;-81
2023/10/26 02:50:51;;;;;;;23.17;18.00;;;;;;;;;;7365392;19;20655;-82
2023/10/26 02:53:16;;;;;;;25.30;19.13;;;;;;;;;;7352147;19;20247;-84
2023/10/26 02:55:41;;;;;;;23.77;18.05;;;;;;;;;;7363937;19;20695;-83
2023/10/26 02:58:06;;;;;;;24.48;18.15;;;;;;;;;;7363925;19;20481;-86
2023/10/26 03:00:31;;;;;;;24.33;18.73;;;;;;;;;;7364692;19;20252;-79
2023/10/26 03:02:57;;;;;;;21.10;17.97;;;;;;;;;;7358300;19;20244;-84
2023/10/26 03:05:22;;;;;;;21.33;16.98;;;;;;;;;;7360991;19;20628;-86
2023/10/26 03:07:47;;;;;;;24.07;17.33;;;;;;;;;;7363497;19;20418;-80
2023/10/26 03:10:12;;;;;;;24.30;16.70;;;;;;;;;;7361620;19;20244;-83
2023/10/26 03:12:37;;;;;;;21.92;17.35;;;;;;;;;;7375011;19;19999;-80
2023/10/26 03:15:02;;;;;;;21.23;16.30;;;;;;;;;;7372317;19;20235;-81
2023/10/26 03:17:28;;;;;;;22.33;16.63;;;;;;;;;;7361079;19;20294;-81
2023/10/26 03:19:53;;;;;;;21.20;16.48;;;;;;;;;;7371267;19;20095;-81
2023/10/26 03:22:18;;;;;;;22.57;17.43;;;;;;;;;;7365095;19;20001;-87
2023/10/26 03:24:43;;;;;;;20.77;15.23;;;;;;;;;;7366387;19;20258;-80
2023/10/26 03:27:08;;;;;;;20.10;15.68;;;;;;;;;;7369220;19;19995;-87
2023/10/26 03:29:34;;;;;;;19.00;15.05;;;;;;;;;;7370710;19;20299;-81
2023/10/26 03:31:59;;;;;;;20.08;15.20;;;;;;;;;;7369718;19;20017;-80
2023/10/26 03:34:24;;;;;;;20.00;15.17;;;;;;;;;;7365099;19;20237;-83
2023/10/26 03:36:49;;;;;;;17.55;14.43;;;;;;;;;;7364856;19;20759;-84
2023/10/26 03:39:14;;;;;;;20.07;14.67;;;;;;;;;;7355397;19;20548;-84
2023/10/26 03:41:39;;;;;;;17.77;14.33;;;;;;;;;;7370421;19;20243;-86
2023/10/26 03:44:05;;;;;;;18.08;13.70;;;;;;;;;;7371919;19;20260;-80
2023/10/26 03:46:30;;;;;;;17.23;12.98;;;;;;;;;;7369481;19;20279;-87
2023/10/26 03:48:55;;;;;;;18.33;11.97;;;;;;;;;;7368296;19;20320;-88
2023/10/26 03:51:20;;;;;;;14.20;11.37;;;;;;;;;;7365036;19;20259;-82
2023/10/26 03:53:46;;;;;;;14.02;10.35;;;;;;;;;;7365018;19;20272;-81
2023/10/26 03:56:11;;;;;;;13.32;10.10;;;;;;;;;;7366072;19;19995;-86
2023/10/26 03:58:36;;;;;;;14.07;9.77;;;;;;;;;;7371915;19;20023;-82
2023/10/26 04:01:01;;;;;;;12.80;9.52;;;;;;;;;;7366953;19;20307;-84
2023/10/26 04:03:27;;;;;;;13.25;10.20;;;;;;;;;;7367684;19;20762;-80
2023/10/26 04:05:52;;;;;;;11.52;8.23;;;;;;;;;;7369079;19;19995;-83
2023/10/26 04:08:17;;;;;;;11.30;8.13;;;;;;;;;;7361185;19;19999;-83
2023/10/26 04:10:42;;;;;;;11.13;7.80;;;;;;;;;;7369565;19;20474;-85
2023/10/26 04:13:08;;;;;;;13.82;8.50;;;;;;;;;;7371148;19;20236;-85
2023/10/26 04:15:33;;;;;;;12.07;7.60;;;;;;;;;;7368873;19;20072;-85
2023/10/26 04:17:58;;;;;;;13.13;7.80;;;;;;;;;;7366677;19;20378;-81
2023/10/26 04:20:24;;;;;;;10.18;7.40;;;;;;;;;;7345904;19;20251;-86
2023/10/26 04:22:49;;;;;;;13.13;7.40;;;;;;;;;;7363501;19;20006;-89
2023/10/26 04:25:14;;;;;;;11.20;7.07;;;;;;;;;;7360446;19;20224;-84
2023/10/26 04:27:39;;;;;;;12.25;7.05;;;;;;;;;;7370352;19;20247;-84
2023/10/26 04:30:05;;;;;;;10.52;7.28;;;;;;;;;;7371201;19;20012;-82
2023/10/26 04:32:30;;;;;;;9.70;6.90;;;;;;;;;;7338349;19;20012;-84
2023/10/26 04:34:55;;;;;;;10.73;7.68;;;;;;;;;;7366510;19;20003;-84
2023/10/26 04:37:20;;;;;;;9.40;7.18;;;;;;;;;;7357107;19;19999;-84
2023/10/26 04:39:45;;;;;;;10.75;7.20;;;;;;;;;;7365698;19;20240;-81
2023/10/26 04:42:12;;;;;;;9.83;7.80;;;;;;;;;;7369685;19;20251;-84
2023/10/26 04:44:37;;;;;;;10.40;6.43;;;;;;;;;;7369079;19;20796;-80
2023/10/26 04:47:03;;;;;;;11.20;6.88;;;;;;;;;;7364551;19;19999;-86
2023/10/26 04:49:28;;;;;;;10.40;6.53;;;;;;;;;;7364145;19;20007;-85
2023/10/26 04:51:53;;;;;;;8.88;5.95;;;;;;;;;;7364005;19;20010;-83
2023/10/26 04:54:18;;;;;;;8.27;5.50;;;;;;;;;;7360866;19;20519;-87
2023/10/26 04:56:44;;;;;;;8.03;5.80;;;;;;;;;;7365549;19;19991;-80
2023/10/26 04:59:09;;;;;;;8.85;6.07;;;;;;;;;;7371187;19;20215;-80
2023/10/26 05:01:34;;;;;;;10.00;6.72;;;;;;;;;;7356630;19;20010;-83
2023/10/26 05:03:59;;;;;;;11.17;6.80;;;;;;;;;;7366741;19;20231;-82
2023/10/26 05:06:24;;;;;;;9.27;6.30;;;;;;;;;;7360005;19;20865;-86
2023/10/26 05:08:50;;;;;;;8.87;6.63;;;;;;;;;;7365780;19;20248;-82
2023/10/26 05:11:15;;;;;;;9.60;6.63;;;;;;;;;;7367813;19;20223;-83
2023/10/26 05:13:40;;;;;;;11.13;6.72;;;;;;;;;;7368069;19;20483;-84
2023/10/26 05:16:06;;;;;;;12.50;8.05;;;;;;;;;;7363102;19;19994;-83
2023/10/26 05:18:32;;;;;;;11.73;7.63;;;;;;;;;;7365295;19;20021;-84
2023/10/26 05:20:57;;;;;;;14.95;8.73;;;;;;;;;;7365398;19;20254;-83
2023/10/26 05:23:22;;;;;;;14.30;7.93;;;;;;;;;;7357875;19;20074;-86
2023/10/26 05:25:48;;;;;;;19.67;9.80;;;;;;;;;;7361094;19;20227;-89
2023/10/26 05:28:13;;;;;;;14.13;9.40;;;;;;;;;;7367461;19;20239;-84
2023/10/26 05:30:38;;;;;;;12.07;9.63;;;;;;;;;;7366525;19;20002;-81
2023/10/26 05:33:04;;;;;;;14.65;11.02;;;;;;;;;;7360547;19;20003;-80
2023/10/26 05:35:29;;;;;;;14.50;9.95;;;;;;;;;;7360135;19;20010;-87
2023/10/26 05:37:54;;;;;;;15.88;11.68;;;;;;;;;;7353206;19;19999;-81
2023/10/26 05:40:20;;;;;;;14.88;10.52;;;;;;;;;;7361883;19;20047;-84
2023/10/26 05:42:45;;;;;;;17.02;11.57;;;;;;;;;;7364287;19;20227;-84
2023/10/26 05:45:10;;;;;;;17.80;12.43;;;;;;;;;;7365497;19;19998;-87
2023/10/26 05:47:35;;;;;;;19.60;14.07;;;;;;;;;;7363179;19;20005;-81
2023/10/26 05:50:01;;;;;;;17.45;12.38;;;;;;;;;;7343208;19;20322;-86
2023/10/26 05:52:26;;;;;;;19.92;13.32;;;;;;;;;;7358694;19;20002;-83
2023/10/26 05:54:52;;;;;;;19.07;13.90;;;;;;;;;;7362449;19;20021;-82
2023/10/26 05:57:17;;;;;;;20.05;15.10;;;;;;;;;;7364895;19;21063;-79
2023/10/26 05:59:42;;;;;;;21.37;15.57;;;;;;;;;;7365578;19;20006;-79
2023/10/26 06:02:08;;;;;;;22.13;15.63;;;;;;;;;;7356737;19;20292;-82
2023/10/26 06:04:33;;;;;;;24.13;15.55;;;;;;;;;;7363401;19;20484;-79
2023/10/26 06:06:59;;;;;;;18.15;13.38;;;;;;;;;;7365805;19;20005;-83
2023/10/26 06:09:24;;;;;;;19.90;14.73;;;;;;;;;;7358548;19;20236;-86
2023/10/26 06:11:49;;;;;;;23.43;15.40;;;;;;;;;;7367505;19;19994;-79
2023/10/26 06:14:14;;;;;;;18.35;12.98;;;;;;;;;;7367530;19;20246;-85
2023/10/26 06:16:40;;;;;;;19.35;13.77;;;;;;;;;;7360949;19;20589;-82
2023/10/26 06:19:05;;;;;;;19.73;13.75;;;;;;;;;;7353351;19;19999;-82
2023/10/26 06:21:32;;;;;;;19.10;12.98;;;;;;;;;;7361299;19;20020;-79
2023/10/26 06:23:57;;;;;;;18.33;13.55;;;;;;;;;;7361966;19;20042;-82
2023/10/26 06:26:22;;;;;;;17.63;13.57;;;;;;;;;;7362902;19;20463;-85
2023/10/26 06:28:47;;;;;;;17.20;13.23;;;;;;;;;;7366578;19;20228;-81
2023/10/26 06:31:15;;;;;;;15.73;12.97;;;;;;;;;;7363861;19;20938;-88
2023/10/26 06:33:41;;;;;;;19.85;13.55;;;;;;;;;;7356845;19;20695;-85
2023/10/26 06:36:07;;;;;;;17.75;12.35;;;;;;;;;;7363182;19;20002;-83
2023/10/26 06:38:32;;;;;;;16.35;11.32;;;;;;;;;;7357792;19;20476;-84
2023/10/26 06:40:58;;;;;;;16.80;12.50;;;;;;;;;;7360077;19;19994;-83
2023/10/26 06:43:24;;;;;;;14.98;11.65;;;;;;;;;;7364931;19;20105;-86
2023/10/26 06:45:49;;;;;;;17.25;12.25;;;;;;;;;;7372026;19;20078;-85
2023/10/26 06:48:14;;;;;;;19.57;14.87;;;;;;;;;;7373387;19;20632;-82
2023/10/26 06:50:39;;;;;;;17.37;13.47;;;;;;;;;;7367477;19;20262;-85
2023/10/26 06:53:04;;;;;;;19.20;14.75;;;;;;;;;;7367856;19;20790;-80
2023/10/26 06:55:32;;;;;;;19.02;13.13;;;;;;;;;;7368619;19;20242;-86
2023/10/26 06:57:57;;;;;;;20.73;13.15;;;;;;;;;;7372285;19;20347;-86
2023/10/26 07:00:22;;;;;;;18.25;12.63;;;;;;;;;;7368540;19;20374;-87
2023/10/26 07:02:48;;;;;;;18.87;12.77;;;;;;;;;;7364222;19;20087;-86
2023/10/26 07:05:13;;;;;;;17.75;12.63;;;;;;;;;;7373843;19;20259;-83
2023/10/26 07:07:38;;;;;;;17.17;13.50;;;;;;;;;;7363223;19;21096;-85
2023/10/26 07:10:03;;;;;;;17.27;13.13;;;;;;;;;;7368376;19;20311;-84
2023/10/26 07:12:29;;;;;;;20.05;14.82;;;;;;;;;;7362155;19;20002;-83
2023/10/26 07:14:54;;;;;;;17.13;13.73;;;;;;;;;;7352023;19;19998;-84
2023/10/26 07:17:23;;;;;;;17.53;13.37;;;;;;;;;;7363981;19;20010;-84
2023/10/26 07:19:49;;;;;;;17.45;12.82;;;;;;;;;;7369447;19;20243;-81
2023/10/26 07:22:15;;;;;;;17.85;12.57;;;;;;;;;;7369729;19;20119;-84
2023/10/26 07:24:40;;;;;;;16.27;12.50;;;;;;;;;;7364711;19;20002;-87
2023/10/26 07:27:05;;;;;;;14.38;11.07;;;;;;;;;;7364815;19;19994;-81
2023/10/26 07:29:30;;;;;;;16.67;11.60;;;;;;;;;;7367974;19;20228;-90
2023/10/26 07:31:55;;;;;;;14.37;11.17;;;;;;;;;;7370737;19;20247;-81
2023/10/26 07:34:20;;;;;;;18.95;10.93;;;;;;;;;;7366488;19;20231;-83
2023/10/26 07:36:46;;;;;;;14.23;11.35;;;;;;;;;;7356029;19;20375;-81
2023/10/26 07:39:11;;;;;;;18.23;11.57;;;;;;;;;;7353498;19;19999;-81
2023/10/26 07:41:36;;;;;;;15.10;11.10;;;;;;;;;;7369420;19;20743;-83
2023/10/26 07:44:01;;;;;;;14.20;10.48;;;;;;;;;;7367438;19;20231;-87
2023/10/26 07:46:26;;;;;;;12.73;10.03;;;;;;;;;;7367461;19;19994;-88
2023/10/26 07:48:51;;;;;;;14.75;10.88;;;;;;;;;;7367700;19;20574;-83
2023/10/26 07:51:17;;;;;;;16.83;11.55;;;;;;;;;;7366044;19;20042;-83
2023/10/26 07:53:42;;;;;;;15.10;11.18;;;;;;;;;;7328649;19;20227;-85
2023/10/26 07:56:08;;;;;;;16.10;11.00;;;;;;;;;;7363449;19;20015;-81
2023/10/26 07:58:33;;;;;;;13.05;10.75;;;;;;;;;;7368800;19;20706;-87
2023/10/26 08:00:59;;;;;;;17.47;11.23;;;;;;;;;;7369641;19;20005;-82
2023/10/26 08:03:24;;;;;;;15.10;12.10;;;;;;;;;;7367758;19;20299;-82
2023/10/26 08:06:00;;;;;;;18.88;13.48;;;;;;;;;;7364627;19;20014;-86
2023/10/26 08:08:25;;;;;;;18.98;14.50;;;;;;;;;;7363978;19;20002;-84
2023/10/26 08:10:50;;;;;;;18.08;14.65;;;;;;;;;;7367969;19;20468;-80
2023/10/26 08:13:16;;;;;;;21.50;15.17;;;;;;;;;;7366169;19;20417;-87
2023/10/26 08:15:44;;;;;;;19.13;15.13;;;;;;;;;;7366842;19;20231;-80
2023/10/26 08:18:11;;;;;;;17.88;14.50;;;;;;;;;;7365244;19;20748;-85
2023/10/26 08:20:37;;;;;;;20.88;14.68;;;;;;;;;;7365141;19;20017;-80
2023/10/26 08:23:02;;;;;;;17.38;14.25;;;;;;;;;;7365461;19;20058;-82
2023/10/26 08:25:27;;;;;;;17.63;14.07;;;;;;;;;;7353969;19;20349;-82
2023/10/26 08:27:52;;;;;;;17.42;13.25;;;;;;;;;;7368566;19;20517;-82
2023/10/26 08:30:18;;;;;;;18.33;13.85;;;;;;;;;;7369769;19;20231;-86
2023/10/26 08:32:43;;;;;;;18.00;13.13;;;;;;;;;;7362910;19;19994;-88
2023/10/26 08:35:08;;;;;;;17.48;12.57;;;;;;;;;;7363723;19;19998;-86
2023/10/26 08:37:34;;;;;;;17.83;12.98;;;;;;;;;;7360199;19;20019;-87
2023/10/26 08:39:59;;;;;;;17.07;12.80;;;;;;;;;;7365559;19;20010;-84
2023/10/26 08:42:24;;;;;;;15.73;11.77;;;;;;;;;;7357471;19;20227;-87
2023/10/26 08:44:49;;;;;;;16.38;12.10;;;;;;;;;;7359639;19;20266;-82
2023/10/26 08:47:17;;;;;;;15.48;12.63;;;;;;;;;;7365589;19;20288;-82
2023/10/26 08:49:43;;;;;;;18.15;12.73;;;;;;;;;;7367336;19;20393;-87
2023/10/26 08:52:09;;;;;;;17.20;12.88;;;;;;;;;;7368394;19;20003;-85
2023/10/26 08:54:34;;;;;;;14.38;11.35;;;;;;;;;;7362402;19;20034;-87
2023/10/26 08:57:07;;;;;;;15.00;12.17;;;;;;;;;;7365466;19;19995;-80
2023/10/26 08:59:32;;;;;;;15.88;11.77;;;;;;;;;;7364012;19;20957;-84
2023/10/26 09:01:57;;;;;;;17.17;12.20;;;;;;;;;;7363327;19;20062;-82
2023/10/26 09:04:22;;;;;;;14.77;11.45;;;;;;;;;;7368204;19;20227;-86
2023/10/26 09:06:49;;;;;;;14.02;11.20;;;;;;;;;;7362444;19;20038;-83
2023/10/26 09:09:14;;;;;;;14.10;11.18;;;;;;;;;;7364522;19;20259;-84
2023/10/26 09:11:39;;;;;;;16.77;11.77;;;;;;;;;;7364990;19;20033;-83
2023/10/26 09:14:14;;;;;;;20.33;12.20;;;;;;;;;;7363991;19;20892;-86
2023/10/26 09:16:48;;;;;;;14.75;11.70;;;;;;;;;;7361616;19;20402;-83
2023/10/26 09:19:15;;;;;;;14.70;12.00;;;;;;;;;;7365836;19;20034;-83
2023/10/26 09:21:50;;;;;;;15.63;11.52;;;;;;;;;;7362584;19;20007;-83
2023/10/26 09:24:24;;;;;;;19.48;13.52;;;;;;;;;;7361413;19;20476;-89
2023/10/26 09:26:53;;;;;;;18.48;12.75;;;;;;;;;;7362374;19;20025;-84
2023/10/26 09:29:19;;;;;;;26.15;13.25;;;;;;;;;;7366380;19;20014;-82
2023/10/26 09:31:52;;;;;;;19.88;13.07;;;;;;;;;;7363390;19;20003;-86
2023/10/26 09:34:17;;;;;;;16.92;12.00;;;;;;;;;;7363354;19;20013;-87
2023/10/26 09:36:56;;;;;;;16.10;11.65;;;;;;;;;;7358351;19;20423;-81
2023/10/26 09:39:21;;;;;;;15.88;11.45;;;;;;;;;;7341467;19;20017;-85
2023/10/26 09:41:46;;;;;;;19.10;11.50;;;;;;;;;;7359650;19;20062;-86
2023/10/26 09:44:12;;;;;;;17.85;10.95;;;;;;;;;;7360686;19;20002;-82
2023/10/26 09:46:37;;;;;;;16.27;11.50;;;;;;;;;;7363164;19;20455;-81
2023/10/26 09:49:03;;;;;;;14.60;10.73;;;;;;;;;;7366302;19;20331;-88
2023/10/26 09:51:28;;;;;;;14.63;10.07;;;;;;;;;;7362827;19;20005;-85
2023/10/26 09:53:54;;;;;;;15.60;10.60;;;;;;;;;;7361670;19;20003;-84
2023/10/26 09:56:21;;;;;;;15.23;10.88;;;;;;;;;;7364791;19;20255;-88
2023/10/26 09:58:47;;;;;;;13.82;10.20;;;;;;;;;;7366348;19;20006;-85
2023/10/26 10:01:32;;;;;;;18.00;10.13;;;;;;;;;;7367438;19;20006;-82
2023/10/26 10:03:57;;;;;;;14.07;10.20;;;;;;;;;;7362719;19;20101;-84
2023/10/26 10:06:41;;;;;;;15.03;10.37;;;;;;;;;;7364854;19;20479;-83
2023/10/26 10:09:07;;;;;;;;;;;;;;;;;;7357039;19;21495;-83
2023/10/26 10:11:32;;;;;;;14.38;10.52;;;;;;;;;;7368682;19;19915;-85
2023/10/26 10:13:57;;;;;;;12.00;9.05;;;;;;;;;;7363321;19;20457;-86
2023/10/26 10:16:34;;;;;;;11.63;8.63;;;;;;;;;;7363058;19;20360;-84
2023/10/26 10:19:15;;;;;;;12.13;8.70;;;;;;;;;;7367703;19;20565;-81
2023/10/26 10:21:40;;;;;;;10.65;8.43;;;;;;;;;;7361693;19;19994;-90
2023/10/26 10:24:06;;;;;;;11.73;8.77;;;;;;;;;;7332892;19;20411;-88
2023/10/26 10:26:51;;;;;;;11.65;7.57;;;;;;;;;;7362575;19;20236;-89
2023/10/26 10:29:18;;;;;;;10.35;7.97;;;;;;;;;;7357094;19;20574;-89
2023/10/26 10:31:43;;;;;;;14.13;10.40;;;;;;;;;;7364846;19;20014;-84
2023/10/26 10:34:08;;;;;;;12.00;9.25;;;;;;;;;;7363467;19;19995;-80
2023/10/26 10:36:52;;;;;;;14.35;10.57;;;;;;;;;;7362079;19;19998;-82
2023/10/26 10:39:22;;;;;;;15.32;10.30;;;;;;;;;;7361371;19;20014;-83
2023/10/26 10:41:47;;;;;;;13.77;9.07;;;;;;;;;;7360733;19;20122;-84
2023/10/26 10:44:13;;;;;;;11.95;8.35;;;;;;;;;;7366238;19;20565;-81
2023/10/26 10:46:38;;;;;;;8.80;5.35;;;;;;;;;;7356088;19;20328;-87
2023/10/26 10:49:08;;;;;;;8.73;5.95;;;;;;;;;;7357836;19;20761;-85
2023/10/26 10:51:36;;;;;;;10.20;5.57;;;;;;;;;;7360617;19;20019;-87
2023/10/26 10:54:11;;;;;;;9.52;6.90;;;;;;;;;;7356199;19;20252;-85
2023/10/26 10:56:37;;;;;;;9.38;6.63;;;;;;;;;;7363076;19;20014;-83
2023/10/26 10:59:14;;;;;;;12.50;8.50;;;;;;;;;;7363875;19;20095;-89
2023/10/26 11:01:39;;;;;;;12.52;9.35;;;;;;;;;;7363340;19;20005;-84
2023/10/26 11:04:06;;;;;;;13.55;9.35;;;;;;;;;;7360274;19;20011;-87
2023/10/26 11:06:31;;;;;;;12.75;9.80;;;;;;;;;;7362071;19;19999;-87
2023/10/26 11:08:56;;;;;;;15.85;11.55;;;;;;;;;;7351317;19;20106;-90
2023/10/26 11:11:29;;;;;;;15.60;11.07;;;;;;;;;;7365511;19;20032;-83
2023/10/26 11:14:07;;;;;;;12.53;10.10;;;;;;;;;;7362288;19;20102;-88
2023/10/26 11:16:32;;;;;;;14.07;10.35;;;;;;;;;;7357557;19;20086;-82
2023/10/26 11:18:59;;;;;;;15.10;11.00;;;;;;;;;;7363262;19;20014;-87
2023/10/26 11:21:24;;;;;;;13.93;10.65;;;;;;;;;;7362386;19;20098;-84
2023/10/26 11:23:51;;;;;;;17.27;12.93;;;;;;;;;;7342755;19;20600;-89
2023/10/26 11:26:16;;;;;;;18.63;13.38;;;;;;;;;;7363306;19;20244;-84
2023/10/26 11:28:41;;;;;;;14.93;12.05;;;;;;;;;;7365148;19;20050;-91
2023/10/26 11:31:07;;;;;;;15.45;11.30;;;;;;;;;;7369915;19;20237;-86
2023/10/26 11:33:33;;;;;;;14.40;11.35;;;;;;;;;;7366496;19;19999;-87
2023/10/26 11:35:58;;;;;;;14.10;10.63;;;;;;;;;;7354500;19;20010;-86
2023/10/26 11:38:24;;;;;;;14.98;10.98;;;;;;;;;;7353043;19;20619;-84
2023/10/26 11:40:49;;;;;;;14.65;10.55;;;;;;;;;;7370048;19;20002;-84
2023/10/26 11:43:14;;;;;;;13.13;10.10;;;;;;;;;;7372287;19;20006;-86
2023/10/26 11:45:48;;;;;;;12.27;9.50;;;;;;;;;;7366056;19;20223;-86
2023/10/26 11:48:24;;;;;;;13.30;9.75;;;;;;;;;;7370773;19;20240;-84
2023/10/26 11:50:49;;;;;;;13.02;9.50;;;;;;;;;;7368782;19;20006;-85
2023/10/26 11:53:14;;;;;;;12.73;9.00;;;;;;;;;;7360975;19;20407;-85
2023/10/26 11:55:39;;;;;;;11.87;7.60;;;;;;;;;;7369896;19;20019;-88
2023/10/26 11:58:05;;;;;;;11.48;6.45;;;;;;;;;;7365352;19;20890;-88
2023/10/26 12:00:30;;;;;;;8.60;6.20;;;;;;;;;;7370149;19;20023;-85
2023/10/26 12:02:56;;;;;;;7.38;5.25;;;;;;;;;;7362789;19;20346;-86
2023/10/26 12:05:23;;;;;;;7.95;5.30;;;;;;;;;;7369306;19;20009;-82
2023/10/26 12:07:48;;;;;;;9.35;6.00;;;;;;;;;;7361932;19;20070;-91
2023/10/26 12:10:15;;;;;;;9.60;6.00;;;;;;;;;;7362796;19;20070;-89
2023/10/26 12:12:40;;;;;;;9.10;5.90;;;;;;;;;;7367671;19;20335;-88
2023/10/26 12:15:05;;;;;;;7.75;5.45;;;;;;;;;;7366426;19;20006;-84
2023/10/26 12:17:31;;;;;;;9.07;5.07;;;;;;;;;;7366570;19;20439;-86
2023/10/26 12:19:56;;;;;;;7.13;5.10;;;;;;;;;;7367929;19;20006;-88
2023/10/26 12:22:21;;;;;;;6.30;4.40;;;;;;;;;;7364888;19;19998;-88
2023/10/26 12:24:46;;;;;;;7.73;4.80;;;;;;;;;;7364113;19;20011;-87
2023/10/26 12:27:16;;;;;;;7.53;4.88;;;;;;;;;;7368037;19;20243;-83
2023/10/26 12:29:41;;;;;;;7.35;4.60;;;;;;;;;;7370021;19;19999;-84
2023/10/26 12:32:06;;;;;;;7.65;4.80;;;;;;;;;;7365785;19;19998;-84
2023/10/26 12:34:31;;;;;;;6.88;4.30;;;;;;;;;;7365743;19;20003;-83
2023/10/26 12:36:56;;;;;;;9.10;4.90;;;;;;;;;;7364852;19;19999;-82
2023/10/26 12:39:22;;;;;;;7.82;4.45;;;;;;;;;;7366545;19;20307;-84
2023/10/26 12:41:47;;;;;;;6.22;3.67;;;;;;;;;;7355341;19;20711;-90
2023/10/26 12:44:12;;;;;;;8.55;4.30;;;;;;;;;;7356122;19;20015;-89
2023/10/26 12:46:37;;;;;;;8.48;4.43;;;;;;;;;;7332342;19;20389;-89
2023/10/26 12:49:02;;;;;;;8.03;4.37;;;;;;;;;;7360711;19;20022;-82
2023/10/26 12:51:27;;;;;;;9.67;4.63;;;;;;;;;;7360720;19;20292;-85
2023/10/26 12:53:53;;;;;;;7.13;4.05;;;;;;;;;;7360221;19;20009;-90
2023/10/26 12:56:18;;;;;;;10.52;5.32;;;;;;;;;;7356657;19;19995;-85
2023/10/26 12:58:43;;;;;;;7.00;4.50;;;;;;;;;;7365128;19;20019;-80
2023/10/26 13:01:08;;;;;;;7.07;4.20;;;;;;;;;;7356388;19;20042;-90
2023/10/26 13:03:33;;;;;;;6.47;3.50;;;;;;;;;;7354815;19;20478;-83
2023/10/26 13:05:59;;;;;;;6.73;3.57;;;;;;;;;;7359673;19;20006;-84
2023/10/26 13:08:24;;;;;;;7.43;4.35;;;;;;;;;;7356394;19;20271;-84
2023/10/26 13:10:50;;;;;;;7.65;4.28;;;;;;;;;;7363761;19;20003;-83
2023/10/26 13:13:15;;;;;;;7.32;4.60;;;;;;;;;;7360188;19;20006;-86
2023/10/26 13:15:40;;;;;;;7.82;4.18;;;;;;;;;;7363094;19;20026;-81
2023/10/26 13:18:05;;;;;;;7.95;5.00;;;;;;;;;;7356341;19;19994;-81
2023/10/26 13:20:31;;;;;;;7.63;3.97;;;;;;;;;;7363309;19;19994;-84
2023/10/26 13:22:56;;;;;;;8.80;4.28;;;;;;;;;;7353894;19;20017;-83
2023/10/26 13:25:23;;;;;;;6.50;4.13;;;;;;;;;;7364331;19;20038;-84
2023/10/26 13:27:48;;;;;;;6.53;4.00;;;;;;;;;;7362028;19;20010;-83
2023/10/26 13:30:14;;;;;;;7.05;4.05;;;;;;;;;;7357148;19;19991;-85
2023/10/26 13:32:41;;;;;;;6.43;4.07;;;;;;;;;;7361341;19;20090;-83
2023/10/26 13:35:07;;;;;;;7.57;4.43;;;;;;;;;;7360771;19;20729;-84
2023/10/26 13:37:32;;;;;;;6.47;4.43;;;;;;;;;;7346617;19;20022;-81
2023/10/26 13:39:57;;;;;;;6.82;4.25;;;;;;;;;;7348165;19;20429;-89
2023/10/26 13:42:22;;;;;;;8.13;4.70;;;;;;;;;;7342989;19;20007;-87
2023/10/26 13:44:47;;;;;;;10.80;5.50;;;;;;;;;;7368213;19;20645;-87
2023/10/26 13:47:12;;;;;;;9.18;6.90;;;;;;;;;;7357139;19;20259;-85
2023/10/26 13:49:38;;;;;;;9.30;6.22;;;;;;;;;;7361233;19;20026;-86
2023/10/26 13:52:04;;;;;;;8.43;5.77;;;;;;;;;;7360718;19;20001;-81
2023/10/26 13:54:29;;;;;;;9.63;5.80;;;;;;;;;;7358211;19;20271;-83
2023/10/26 13:56:54;;;;;;;7.73;5.87;;;;;;;;;;7354329;19;20360;-88
2023/10/26 13:59:20;;;;;;;9.35;6.15;;;;;;;;;;7365317;19;20235;-81
2023/10/26 14:01:45;;;;;;;9.70;6.10;;;;;;;;;;7362372;19;20044;-81
2023/10/26 14:04:10;;;;;;;8.45;6.47;;;;;;;;;;7362571;19;20005;-81
2023/10/26 14:06:35;;;;;;;9.40;6.47;;;;;;;;;;7363233;19;20033;-88
2023/10/26 14:09:01;;;;;;;9.30;7.50;;;;;;;;;;7357787;19;20359;-89
2023/10/26 14:11:26;;;;;;;9.23;6.22;;;;;;;;;;7366359;19;20236;-84
2023/10/26 14:13:52;;;;;;;10.30;6.70;;;;;;;;;;7345901;19;20006;-87
2023/10/26 14:16:20;;;;;;;9.18;7.15;;;;;;;;;;7346565;19;20006;-88